sensor_id;sensor_type;location;lat;lon;timestamp;P1;durP1;ratioP1;P2;durP2;ratioP2
58615;SDS011;44385;51.992;4.206;2023-07-22T00:00:21;7.97;;;4.20;;
58615;SDS011;44385;51.992;4.206;2023-07-22T00:02:47;5.25;;;3.80;;
58615;SDS011;44385;51.992;4.206;2023-07-22T00:05:14;6.07;;;3.88;;
58615;SDS011;44385;51.992;4.206;2023-07-22T00:07:40;4.32;;;3.92;;
58615;SDS011;44385;51.992;4.206;2023-07-22T00:10:07;5.25;;;4.03;;
58615;SDS011;44385;51.992;4.206;2023-07-22T00:12:34;7.00;;;3.80;;
58615;SDS011;44385;51.992;4.206;2023-07-22T00:15:00;5.43;;;3.97;;
58615;SDS011;44385;51.992;4.206;2023-07-22T00:17:28;5.20;;;4.10;;
58615;SDS011;44385;51.992;4.206;2023-07-22T00:19:55;5.55;;;4.63;;
58615;SDS011;44385;51.992;4.206;2023-07-22T00:22:22;5.40;;;4.68;;
58615;SDS011;44385;51.992;4.206;2023-07-22T00:24:51;4.70;;;4.07;;
58615;SDS011;44385;51.992;4.206;2023-07-22T00:27:18;7.65;;;4.55;;
58615;SDS011;44385;51.992;4.206;2023-07-22T00:29:45;5.32;;;4.38;;
58615;SDS011;44385;51.992;4.206;2023-07-22T00:32:11;6.70;;;4.68;;
58615;SDS011;44385;51.992;4.206;2023-07-22T00:34:40;5.60;;;4.10;;
58615;SDS011;44385;51.992;4.206;2023-07-22T00:37:07;5.60;;;4.18;;
58615;SDS011;44385;51.992;4.206;2023-07-22T00:39:33;5.57;;;4.95;;
58615;SDS011;44385;51.992;4.206;2023-07-22T00:42:00;6.75;;;4.97;;
58615;SDS011;44385;51.992;4.206;2023-07-22T00:44:27;5.90;;;4.45;;
58615;SDS011;44385;51.992;4.206;2023-07-22T00:46:54;5.35;;;4.28;;
58615;SDS011;44385;51.992;4.206;2023-07-22T00:49:22;6.60;;;3.88;;
58615;SDS011;44385;51.992;4.206;2023-07-22T00:51:51;9.95;;;5.43;;
58615;SDS011;44385;51.992;4.206;2023-07-22T00:54:19;6.13;;;4.05;;
58615;SDS011;44385;51.992;4.206;2023-07-22T00:56:46;6.25;;;4.18;;
58615;SDS011;44385;51.992;4.206;2023-07-22T00:59:13;5.30;;;3.95;;
58615;SDS011;44385;51.992;4.206;2023-07-22T01:01:40;5.38;;;4.05;;
58615;SDS011;44385;51.992;4.206;2023-07-22T01:04:06;7.00;;;3.88;;
58615;SDS011;44385;51.992;4.206;2023-07-22T01:06:34;5.63;;;4.38;;
58615;SDS011;44385;51.992;4.206;2023-07-22T01:09:02;4.65;;;3.75;;
58615;SDS011;44385;51.992;4.206;2023-07-22T01:11:33;5.03;;;3.80;;
58615;SDS011;44385;51.992;4.206;2023-07-22T01:13:59;5.88;;;3.55;;
58615;SDS011;44385;51.992;4.206;2023-07-22T01:16:26;4.63;;;3.65;;
58615;SDS011;44385;51.992;4.206;2023-07-22T01:18:53;6.00;;;4.05;;
58615;SDS011;44385;51.992;4.206;2023-07-22T01:21:21;8.35;;;3.63;;
58615;SDS011;44385;51.992;4.206;2023-07-22T01:23:49;5.28;;;3.95;;
58615;SDS011;44385;51.992;4.206;2023-07-22T01:26:16;7.38;;;4.28;;
58615;SDS011;44385;51.992;4.206;2023-07-22T01:28:43;4.63;;;3.20;;
58615;SDS011;44385;51.992;4.206;2023-07-22T01:31:10;4.78;;;3.00;;
58615;SDS011;44385;51.992;4.206;2023-07-22T01:33:36;4.25;;;3.35;;
58615;SDS011;44385;51.992;4.206;2023-07-22T01:36:04;3.30;;;3.00;;
58615;SDS011;44385;51.992;4.206;2023-07-22T01:38:31;4.80;;;3.70;;
58615;SDS011;44385;51.992;4.206;2023-07-22T01:40:58;3.17;;;2.88;;
58615;SDS011;44385;51.992;4.206;2023-07-22T01:43:25;3.70;;;3.20;;
58615;SDS011;44385;51.992;4.206;2023-07-22T01:45:52;6.32;;;3.55;;
58615;SDS011;44385;51.992;4.206;2023-07-22T01:48:18;4.50;;;3.50;;
58615;SDS011;44385;51.992;4.206;2023-07-22T01:50:47;4.82;;;3.45;;
58615;SDS011;44385;51.992;4.206;2023-07-22T01:53:13;5.45;;;3.72;;
58615;SDS011;44385;51.992;4.206;2023-07-22T01:55:40;3.60;;;2.95;;
58615;SDS011;44385;51.992;4.206;2023-07-22T01:58:08;3.63;;;3.20;;
58615;SDS011;44385;51.992;4.206;2023-07-22T02:00:34;4.20;;;3.42;;
58615;SDS011;44385;51.992;4.206;2023-07-22T02:03:00;3.45;;;3.10;;
58615;SDS011;44385;51.992;4.206;2023-07-22T02:05:27;5.90;;;3.20;;
58615;SDS011;44385;51.992;4.206;2023-07-22T02:07:56;3.58;;;3.22;;
58615;SDS011;44385;51.992;4.206;2023-07-22T02:10:23;4.20;;;2.72;;
58615;SDS011;44385;51.992;4.206;2023-07-22T02:12:52;5.32;;;3.30;;
58615;SDS011;44385;51.992;4.206;2023-07-22T02:15:20;4.70;;;3.63;;
58615;SDS011;44385;51.992;4.206;2023-07-22T02:17:49;4.18;;;3.15;;
58615;SDS011;44385;51.992;4.206;2023-07-22T02:20:15;3.50;;;2.65;;
58615;SDS011;44385;51.992;4.206;2023-07-22T02:22:44;5.53;;;3.35;;
58615;SDS011;44385;51.992;4.206;2023-07-22T02:25:11;5.72;;;3.28;;
58615;SDS011;44385;51.992;4.206;2023-07-22T02:27:38;3.30;;;3.00;;
58615;SDS011;44385;51.992;4.206;2023-07-22T02:30:06;7.10;;;3.40;;
58615;SDS011;44385;51.992;4.206;2023-07-22T02:35:05;4.05;;;3.15;;
58615;SDS011;44385;51.992;4.206;2023-07-22T02:37:31;4.78;;;3.00;;
58615;SDS011;44385;51.992;4.206;2023-07-22T02:39:58;4.57;;;3.25;;
58615;SDS011;44385;51.992;4.206;2023-07-22T02:42:25;6.28;;;3.10;;
58615;SDS011;44385;51.992;4.206;2023-07-22T02:44:51;6.10;;;3.20;;
58615;SDS011;44385;51.992;4.206;2023-07-22T02:47:17;3.70;;;3.00;;
58615;SDS011;44385;51.992;4.206;2023-07-22T02:49:44;4.40;;;2.75;;
58615;SDS011;44385;51.992;4.206;2023-07-22T02:52:12;4.35;;;3.10;;
58615;SDS011;44385;51.992;4.206;2023-07-22T02:54:39;6.85;;;3.25;;
58615;SDS011;44385;51.992;4.206;2023-07-22T02:57:07;4.30;;;2.97;;
58615;SDS011;44385;51.992;4.206;2023-07-22T02:59:33;3.28;;;2.72;;
58615;SDS011;44385;51.992;4.206;2023-07-22T03:01:59;5.05;;;2.97;;
58615;SDS011;44385;51.992;4.206;2023-07-22T03:04:26;3.20;;;2.90;;
58615;SDS011;44385;51.992;4.206;2023-07-22T03:06:52;5.28;;;3.00;;
58615;SDS011;44385;51.992;4.206;2023-07-22T03:09:20;4.00;;;3.22;;
58615;SDS011;44385;51.992;4.206;2023-07-22T03:11:47;4.30;;;2.67;;
58615;SDS011;44385;51.992;4.206;2023-07-22T03:14:13;3.05;;;2.67;;
58615;SDS011;44385;51.992;4.206;2023-07-22T03:16:40;5.50;;;2.92;;
58615;SDS011;44385;51.992;4.206;2023-07-22T03:19:06;3.83;;;3.15;;
58615;SDS011;44385;51.992;4.206;2023-07-22T03:21:33;5.07;;;3.30;;
58615;SDS011;44385;51.992;4.206;2023-07-22T03:23:59;7.72;;;3.03;;
58615;SDS011;44385;51.992;4.206;2023-07-22T03:26:27;5.47;;;4.15;;
58615;SDS011;44385;51.992;4.206;2023-07-22T03:28:57;5.93;;;3.30;;
58615;SDS011;44385;51.992;4.206;2023-07-22T03:31:23;4.30;;;2.70;;
58615;SDS011;44385;51.992;4.206;2023-07-22T03:33:50;6.28;;;4.43;;
58615;SDS011;44385;51.992;4.206;2023-07-22T03:36:17;4.35;;;3.95;;
58615;SDS011;44385;51.992;4.206;2023-07-22T03:38:45;5.03;;;3.67;;
58615;SDS011;44385;51.992;4.206;2023-07-22T03:41:11;6.95;;;3.58;;
58615;SDS011;44385;51.992;4.206;2023-07-22T03:43:39;3.67;;;3.33;;
58615;SDS011;44385;51.992;4.206;2023-07-22T03:46:06;3.67;;;3.33;;
58615;SDS011;44385;51.992;4.206;2023-07-22T03:48:33;5.18;;;3.30;;
58615;SDS011;44385;51.992;4.206;2023-07-22T03:51:00;7.60;;;3.90;;
58615;SDS011;44385;51.992;4.206;2023-07-22T03:53:26;8.85;;;5.47;;
58615;SDS011;44385;51.992;4.206;2023-07-22T03:55:53;6.93;;;4.82;;
58615;SDS011;44385;51.992;4.206;2023-07-22T03:58:19;9.15;;;7.22;;
58615;SDS011;44385;51.992;4.206;2023-07-22T04:00:49;10.15;;;6.70;;
58615;SDS011;44385;51.992;4.206;2023-07-22T04:03:16;16.10;;;10.43;;
58615;SDS011;44385;51.992;4.206;2023-07-22T04:05:43;13.77;;;9.25;;
58615;SDS011;44385;51.992;4.206;2023-07-22T04:08:09;16.30;;;9.68;;
58615;SDS011;44385;51.992;4.206;2023-07-22T04:10:35;17.95;;;12.55;;
58615;SDS011;44385;51.992;4.206;2023-07-22T04:13:02;14.77;;;10.95;;
58615;SDS011;44385;51.992;4.206;2023-07-22T04:15:32;19.48;;;10.82;;
58615;SDS011;44385;51.992;4.206;2023-07-22T04:18:00;21.20;;;13.02;;
58615;SDS011;44385;51.992;4.206;2023-07-22T04:20:26;22.75;;;15.23;;
58615;SDS011;44385;51.992;4.206;2023-07-22T04:22:53;27.65;;;16.98;;
58615;SDS011;44385;51.992;4.206;2023-07-22T04:25:19;23.85;;;14.43;;
58615;SDS011;44385;51.992;4.206;2023-07-22T04:27:46;26.23;;;16.80;;
58615;SDS011;44385;51.992;4.206;2023-07-22T04:30:12;30.92;;;17.05;;
58615;SDS011;44385;51.992;4.206;2023-07-22T04:32:45;30.88;;;16.20;;
58615;SDS011;44385;51.992;4.206;2023-07-22T04:35:13;27.45;;;17.80;;
58615;SDS011;44385;51.992;4.206;2023-07-22T04:37:39;25.65;;;16.45;;
58615;SDS011;44385;51.992;4.206;2023-07-22T04:40:06;27.00;;;16.95;;
58615;SDS011;44385;51.992;4.206;2023-07-22T04:42:36;25.63;;;16.50;;
58615;SDS011;44385;51.992;4.206;2023-07-22T04:45:05;27.27;;;16.40;;
58615;SDS011;44385;51.992;4.206;2023-07-22T04:47:32;27.70;;;16.52;;
58615;SDS011;44385;51.992;4.206;2023-07-22T04:49:58;26.80;;;17.02;;
58615;SDS011;44385;51.992;4.206;2023-07-22T04:52:26;28.13;;;16.67;;
58615;SDS011;44385;51.992;4.206;2023-07-22T04:54:52;23.98;;;13.90;;
58615;SDS011;44385;51.992;4.206;2023-07-22T04:57:19;24.42;;;17.08;;
58615;SDS011;44385;51.992;4.206;2023-07-22T04:59:46;28.85;;;16.75;;
58615;SDS011;44385;51.992;4.206;2023-07-22T05:02:12;28.95;;;18.42;;
58615;SDS011;44385;51.992;4.206;2023-07-22T05:04:39;28.83;;;18.35;;
58615;SDS011;44385;51.992;4.206;2023-07-22T05:07:05;29.20;;;17.38;;
58615;SDS011;44385;51.992;4.206;2023-07-22T05:09:33;30.05;;;18.70;;
58615;SDS011;44385;51.992;4.206;2023-07-22T05:12:00;32.92;;;18.98;;
58615;SDS011;44385;51.992;4.206;2023-07-22T05:14:26;27.13;;;16.48;;
58615;SDS011;44385;51.992;4.206;2023-07-22T05:16:52;32.72;;;18.58;;
58615;SDS011;44385;51.992;4.206;2023-07-22T05:19:19;31.50;;;18.65;;
58615;SDS011;44385;51.992;4.206;2023-07-22T05:21:45;31.13;;;17.45;;
58615;SDS011;44385;51.992;4.206;2023-07-22T05:24:12;36.67;;;16.98;;
58615;SDS011;44385;51.992;4.206;2023-07-22T05:26:40;29.25;;;18.30;;
58615;SDS011;44385;51.992;4.206;2023-07-22T05:29:06;25.48;;;16.65;;
58615;SDS011;44385;51.992;4.206;2023-07-22T05:31:32;29.38;;;17.63;;
58615;SDS011;44385;51.992;4.206;2023-07-22T05:34:02;31.23;;;17.35;;
58615;SDS011;44385;51.992;4.206;2023-07-22T05:36:29;26.65;;;17.45;;
58615;SDS011;44385;51.992;4.206;2023-07-22T05:38:58;27.60;;;16.80;;
58615;SDS011;44385;51.992;4.206;2023-07-22T05:41:25;25.02;;;14.27;;
58615;SDS011;44385;51.992;4.206;2023-07-22T05:43:53;26.38;;;14.98;;
58615;SDS011;44385;51.992;4.206;2023-07-22T05:46:19;24.23;;;14.82;;
58615;SDS011;44385;51.992;4.206;2023-07-22T05:48:46;27.15;;;14.70;;
58615;SDS011;44385;51.992;4.206;2023-07-22T05:51:12;23.75;;;16.08;;
58615;SDS011;44385;51.992;4.206;2023-07-22T05:53:40;28.42;;;15.27;;
58615;SDS011;44385;51.992;4.206;2023-07-22T05:56:06;28.67;;;15.48;;
58615;SDS011;44385;51.992;4.206;2023-07-22T05:58:33;24.48;;;14.82;;
58615;SDS011;44385;51.992;4.206;2023-07-22T06:01:01;22.67;;;13.65;;
58615;SDS011;44385;51.992;4.206;2023-07-22T06:03:27;25.55;;;14.48;;
58615;SDS011;44385;51.992;4.206;2023-07-22T06:05:54;29.92;;;14.85;;
58615;SDS011;44385;51.992;4.206;2023-07-22T06:08:20;22.48;;;13.00;;
58615;SDS011;44385;51.992;4.206;2023-07-22T06:10:47;26.48;;;14.27;;
58615;SDS011;44385;51.992;4.206;2023-07-22T06:13:13;24.40;;;13.23;;
58615;SDS011;44385;51.992;4.206;2023-07-22T06:15:40;23.15;;;13.55;;
58615;SDS011;44385;51.992;4.206;2023-07-22T06:18:08;22.85;;;13.40;;
58615;SDS011;44385;51.992;4.206;2023-07-22T06:20:34;22.38;;;14.43;;
58615;SDS011;44385;51.992;4.206;2023-07-22T06:23:01;24.35;;;14.00;;
58615;SDS011;44385;51.992;4.206;2023-07-22T06:25:27;25.08;;;14.07;;
58615;SDS011;44385;51.992;4.206;2023-07-22T06:27:56;25.52;;;14.25;;
58615;SDS011;44385;51.992;4.206;2023-07-22T06:30:22;22.35;;;13.25;;
58615;SDS011;44385;51.992;4.206;2023-07-22T06:32:49;19.38;;;12.57;;
58615;SDS011;44385;51.992;4.206;2023-07-22T06:35:17;21.75;;;13.63;;
58615;SDS011;44385;51.992;4.206;2023-07-22T06:37:43;19.52;;;11.85;;
58615;SDS011;44385;51.992;4.206;2023-07-22T06:40:10;20.40;;;11.48;;
58615;SDS011;44385;51.992;4.206;2023-07-22T06:42:36;19.00;;;11.40;;
58615;SDS011;44385;51.992;4.206;2023-07-22T06:45:05;19.63;;;12.48;;
58615;SDS011;44385;51.992;4.206;2023-07-22T06:47:32;19.25;;;12.18;;
58615;SDS011;44385;51.992;4.206;2023-07-22T06:49:58;21.45;;;12.23;;
58615;SDS011;44385;51.992;4.206;2023-07-22T06:52:26;22.95;;;13.00;;
58615;SDS011;44385;51.992;4.206;2023-07-22T06:54:52;21.08;;;11.80;;
58615;SDS011;44385;51.992;4.206;2023-07-22T06:57:18;21.70;;;13.05;;
58615;SDS011;44385;51.992;4.206;2023-07-22T06:59:45;24.98;;;12.35;;
58615;SDS011;44385;51.992;4.206;2023-07-22T07:02:11;22.17;;;12.70;;
58615;SDS011;44385;51.992;4.206;2023-07-22T07:04:38;21.08;;;11.60;;
58615;SDS011;44385;51.992;4.206;2023-07-22T07:07:04;21.23;;;11.45;;
58615;SDS011;44385;51.992;4.206;2023-07-22T07:09:32;24.70;;;12.50;;
58615;SDS011;44385;51.992;4.206;2023-07-22T07:11:58;21.45;;;12.73;;
58615;SDS011;44385;51.992;4.206;2023-07-22T07:14:25;20.27;;;11.38;;
58615;SDS011;44385;51.992;4.206;2023-07-22T07:16:51;18.98;;;11.15;;
58615;SDS011;44385;51.992;4.206;2023-07-22T07:19:18;17.38;;;9.07;;
58615;SDS011;44385;51.992;4.206;2023-07-22T07:21:45;14.98;;;8.77;;
58615;SDS011;44385;51.992;4.206;2023-07-22T07:24:11;12.57;;;7.20;;
58615;SDS011;44385;51.992;4.206;2023-07-22T07:26:39;14.38;;;8.52;;
58615;SDS011;44385;51.992;4.206;2023-07-22T07:29:06;19.42;;;10.73;;
58615;SDS011;44385;51.992;4.206;2023-07-22T07:31:32;18.48;;;11.75;;
58615;SDS011;44385;51.992;4.206;2023-07-22T07:34:01;19.67;;;9.50;;
58615;SDS011;44385;51.992;4.206;2023-07-22T07:36:31;16.05;;;9.68;;
58615;SDS011;44385;51.992;4.206;2023-07-22T07:39:00;18.40;;;9.88;;
58615;SDS011;44385;51.992;4.206;2023-07-22T07:41:28;15.65;;;10.13;;
58615;SDS011;44385;51.992;4.206;2023-07-22T07:43:57;15.88;;;9.43;;
58615;SDS011;44385;51.992;4.206;2023-07-22T07:46:25;18.67;;;10.85;;
58615;SDS011;44385;51.992;4.206;2023-07-22T07:48:52;16.35;;;10.63;;
58615;SDS011;44385;51.992;4.206;2023-07-22T07:51:19;18.55;;;11.40;;
58615;SDS011;44385;51.992;4.206;2023-07-22T07:53:46;18.77;;;11.38;;
58615;SDS011;44385;51.992;4.206;2023-07-22T07:56:13;15.55;;;10.80;;
58615;SDS011;44385;51.992;4.206;2023-07-22T07:58:40;15.90;;;10.05;;
58615;SDS011;44385;51.992;4.206;2023-07-22T08:01:07;19.20;;;10.65;;
58615;SDS011;44385;51.992;4.206;2023-07-22T08:03:35;17.02;;;9.55;;
58615;SDS011;44385;51.992;4.206;2023-07-22T08:06:01;18.30;;;10.43;;
58615;SDS011;44385;51.992;4.206;2023-07-22T08:08:28;18.38;;;10.32;;
58615;SDS011;44385;51.992;4.206;2023-07-22T08:11:00;14.93;;;8.63;;
58615;SDS011;44385;51.992;4.206;2023-07-22T08:13:26;12.40;;;6.78;;
58615;SDS011;44385;51.992;4.206;2023-07-22T08:15:55;13.93;;;6.05;;
58615;SDS011;44385;51.992;4.206;2023-07-22T08:18:22;9.82;;;5.20;;
58615;SDS011;44385;51.992;4.206;2023-07-22T08:20:50;9.17;;;6.07;;
58615;SDS011;44385;51.992;4.206;2023-07-22T08:23:17;10.43;;;5.25;;
58615;SDS011;44385;51.992;4.206;2023-07-22T08:25:43;8.18;;;5.30;;
58615;SDS011;44385;51.992;4.206;2023-07-22T08:28:10;10.52;;;5.05;;
58615;SDS011;44385;51.992;4.206;2023-07-22T08:30:36;12.07;;;5.32;;
58615;SDS011;44385;51.992;4.206;2023-07-22T08:33:05;8.32;;;5.05;;
58615;SDS011;44385;51.992;4.206;2023-07-22T08:35:34;10.27;;;5.03;;
58615;SDS011;44385;51.992;4.206;2023-07-22T08:38:01;7.00;;;4.97;;
58615;SDS011;44385;51.992;4.206;2023-07-22T08:40:32;8.50;;;4.22;;
58615;SDS011;44385;51.992;4.206;2023-07-22T08:42:58;4.72;;;3.75;;
58615;SDS011;44385;51.992;4.206;2023-07-22T08:45:25;7.07;;;4.30;;
58615;SDS011;44385;51.992;4.206;2023-07-22T08:47:58;9.52;;;3.50;;
58615;SDS011;44385;51.992;4.206;2023-07-22T08:52:54;9.18;;;4.25;;
58615;SDS011;44385;51.992;4.206;2023-07-22T08:55:21;5.57;;;3.58;;
58615;SDS011;44385;51.992;4.206;2023-07-22T08:57:47;8.48;;;3.28;;
58615;SDS011;44385;51.992;4.206;2023-07-22T09:00:14;6.10;;;3.90;;
58615;SDS011;44385;51.992;4.206;2023-07-22T09:02:42;5.32;;;3.15;;
58615;SDS011;44385;51.992;4.206;2023-07-22T09:05:08;9.73;;;4.07;;
58615;SDS011;44385;51.992;4.206;2023-07-22T09:07:35;4.65;;;3.00;;
58615;SDS011;44385;51.992;4.206;2023-07-22T09:10:05;7.50;;;3.90;;
58615;SDS011;44385;51.992;4.206;2023-07-22T09:12:32;4.78;;;2.88;;
58615;SDS011;44385;51.992;4.206;2023-07-22T09:15:05;9.40;;;3.65;;
58615;SDS011;44385;51.992;4.206;2023-07-22T09:17:32;9.40;;;3.80;;
58615;SDS011;44385;51.992;4.206;2023-07-22T09:22:45;9.43;;;4.50;;
58615;SDS011;44385;51.992;4.206;2023-07-22T09:37:45;8.93;;;4.72;;
58615;SDS011;44385;51.992;4.206;2023-07-22T09:40:22;9.43;;;4.50;;
58615;SDS011;44385;51.992;4.206;2023-07-22T09:43:09;13.15;;;5.78;;
58615;SDS011;44385;51.992;4.206;2023-07-22T09:46:07;10.75;;;5.25;;
58615;SDS011;44385;51.992;4.206;2023-07-22T09:51:40;8.63;;;4.63;;
58615;SDS011;44385;51.992;4.206;2023-07-22T09:54:19;8.10;;;5.30;;
58615;SDS011;44385;51.992;4.206;2023-07-22T09:57:06;6.05;;;3.72;;
58615;SDS011;44385;51.992;4.206;2023-07-22T09:59:37;7.68;;;3.15;;
58615;SDS011;44385;51.992;4.206;2023-07-22T10:08:10;8.38;;;3.50;;
58615;SDS011;44385;51.992;4.206;2023-07-22T10:13:43;4.35;;;3.30;;
58615;SDS011;44385;51.992;4.206;2023-07-22T10:16:14;5.18;;;2.78;;
58615;SDS011;44385;51.992;4.206;2023-07-22T10:21:58;3.33;;;2.08;;
58615;SDS011;44385;51.992;4.206;2023-07-22T10:27:38;2.47;;;2.08;;
58615;SDS011;44385;51.992;4.206;2023-07-22T10:33:17;3.45;;;1.70;;
58615;SDS011;44385;51.992;4.206;2023-07-22T10:36:04;5.78;;;1.90;;
58615;SDS011;44385;51.992;4.206;2023-07-22T10:38:51;3.45;;;1.80;;
58615;SDS011;44385;51.992;4.206;2023-07-22T10:41:49;3.45;;;1.98;;
58615;SDS011;44385;51.992;4.206;2023-07-22T10:44:36;3.45;;;1.67;;
58615;SDS011;44385;51.992;4.206;2023-07-22T10:47:31;5.40;;;1.95;;
58615;SDS011;44385;51.992;4.206;2023-07-22T10:53:40;6.15;;;1.77;;
58615;SDS011;44385;51.992;4.206;2023-07-22T10:59:25;3.38;;;1.92;;
58615;SDS011;44385;51.992;4.206;2023-07-22T11:07:46;3.92;;;1.60;;
58615;SDS011;44385;51.992;4.206;2023-07-22T11:10:29;3.85;;;1.80;;
58615;SDS011;44385;51.992;4.206;2023-07-22T11:13:08;4.90;;;1.77;;
58615;SDS011;44385;51.992;4.206;2023-07-22T11:19:07;2.65;;;1.45;;
58615;SDS011;44385;51.992;4.206;2023-07-22T11:21:47;2.63;;;1.23;;
58615;SDS011;44385;51.992;4.206;2023-07-22T11:24:32;4.10;;;1.42;;
58615;SDS011;44385;51.992;4.206;2023-07-22T11:27:08;2.33;;;1.35;;
58615;SDS011;44385;51.992;4.206;2023-07-22T11:29:41;3.42;;;1.42;;
58615;SDS011;44385;51.992;4.206;2023-07-22T11:32:15;2.90;;;1.65;;
58615;SDS011;44385;51.992;4.206;2023-07-22T11:34:44;2.47;;;1.63;;
58615;SDS011;44385;51.992;4.206;2023-07-22T11:37:11;3.92;;;1.88;;
58615;SDS011;44385;51.992;4.206;2023-07-22T11:39:39;4.70;;;1.85;;
58615;SDS011;44385;51.992;4.206;2023-07-22T11:42:15;2.85;;;1.33;;
58615;SDS011;44385;51.992;4.206;2023-07-22T11:44:46;4.72;;;1.60;;
58615;SDS011;44385;51.992;4.206;2023-07-22T11:47:13;3.85;;;1.58;;
58615;SDS011;44385;51.992;4.206;2023-07-22T11:49:43;5.45;;;2.00;;
58615;SDS011;44385;51.992;4.206;2023-07-22T11:52:26;3.85;;;1.70;;
58615;SDS011;44385;51.992;4.206;2023-07-22T11:54:53;4.30;;;2.17;;
58615;SDS011;44385;51.992;4.206;2023-07-22T11:57:22;3.05;;;2.00;;
58615;SDS011;44385;51.992;4.206;2023-07-22T11:59:55;3.03;;;1.52;;
58615;SDS011;44385;51.992;4.206;2023-07-22T12:02:27;4.63;;;1.83;;
58615;SDS011;44385;51.992;4.206;2023-07-22T12:04:57;4.60;;;1.75;;
58615;SDS011;44385;51.992;4.206;2023-07-22T12:07:40;8.60;;;1.98;;
58615;SDS011;44385;51.992;4.206;2023-07-22T12:10:07;2.58;;;1.90;;
58615;SDS011;44385;51.992;4.206;2023-07-22T12:12:40;5.10;;;2.22;;
58615;SDS011;44385;51.992;4.206;2023-07-22T12:15:09;5.80;;;1.92;;
58615;SDS011;44385;51.992;4.206;2023-07-22T12:17:44;2.13;;;1.75;;
58615;SDS011;44385;51.992;4.206;2023-07-22T12:20:13;2.72;;;1.85;;
58615;SDS011;44385;51.992;4.206;2023-07-22T12:22:43;3.55;;;1.55;;
58615;SDS011;44385;51.992;4.206;2023-07-22T12:25:09;4.35;;;1.90;;
58615;SDS011;44385;51.992;4.206;2023-07-22T12:27:45;3.30;;;1.70;;
58615;SDS011;44385;51.992;4.206;2023-07-22T12:30:16;2.53;;;2.05;;
58615;SDS011;44385;51.992;4.206;2023-07-22T12:32:45;5.82;;;2.13;;
58615;SDS011;44385;51.992;4.206;2023-07-22T12:35:11;4.78;;;1.85;;
58615;SDS011;44385;51.992;4.206;2023-07-22T12:37:38;4.43;;;2.15;;
58615;SDS011;44385;51.992;4.206;2023-07-22T12:40:06;6.13;;;2.22;;
58615;SDS011;44385;51.992;4.206;2023-07-22T12:42:33;5.70;;;2.22;;
58615;SDS011;44385;51.992;4.206;2023-07-22T12:45:01;11.25;;;2.97;;
58615;SDS011;44385;51.992;4.206;2023-07-22T12:47:28;3.15;;;1.98;;
58615;SDS011;44385;51.992;4.206;2023-07-22T12:50:01;3.45;;;2.28;;
58615;SDS011;44385;51.992;4.206;2023-07-22T12:52:29;4.45;;;1.70;;
58615;SDS011;44385;51.992;4.206;2023-07-22T12:54:57;6.47;;;2.13;;
58615;SDS011;44385;51.992;4.206;2023-07-22T12:57:25;7.75;;;2.05;;
58615;SDS011;44385;51.992;4.206;2023-07-22T12:59:52;3.10;;;1.80;;
58615;SDS011;44385;51.992;4.206;2023-07-22T13:02:20;4.30;;;2.15;;
58615;SDS011;44385;51.992;4.206;2023-07-22T13:04:47;5.95;;;2.20;;
58615;SDS011;44385;51.992;4.206;2023-07-22T13:07:16;3.83;;;1.67;;
58615;SDS011;44385;51.992;4.206;2023-07-22T13:09:42;4.03;;;2.10;;
58615;SDS011;44385;51.992;4.206;2023-07-22T13:12:11;4.70;;;2.10;;
58615;SDS011;44385;51.992;4.206;2023-07-22T13:14:38;3.50;;;1.88;;
58615;SDS011;44385;51.992;4.206;2023-07-22T13:17:05;4.22;;;1.42;;
58615;SDS011;44385;51.992;4.206;2023-07-22T13:19:33;2.50;;;2.05;;
58615;SDS011;44385;51.992;4.206;2023-07-22T13:22:06;6.45;;;2.10;;
58615;SDS011;44385;51.992;4.206;2023-07-22T13:24:32;7.25;;;1.90;;
58615;SDS011;44385;51.992;4.206;2023-07-22T13:26:59;3.97;;;1.67;;
58615;SDS011;44385;51.992;4.206;2023-07-22T13:29:27;3.25;;;1.75;;
58615;SDS011;44385;51.992;4.206;2023-07-22T13:31:56;3.53;;;2.00;;
58615;SDS011;44385;51.992;4.206;2023-07-22T13:34:33;4.60;;;1.80;;
58615;SDS011;44385;51.992;4.206;2023-07-22T13:37:05;3.47;;;1.67;;
58615;SDS011;44385;51.992;4.206;2023-07-22T13:39:34;3.72;;;1.83;;
58615;SDS011;44385;51.992;4.206;2023-07-22T13:42:00;3.28;;;2.00;;
58615;SDS011;44385;51.992;4.206;2023-07-22T13:44:27;4.93;;;1.98;;
58615;SDS011;44385;51.992;4.206;2023-07-22T13:46:56;3.58;;;1.88;;
58615;SDS011;44385;51.992;4.206;2023-07-22T13:49:23;4.85;;;2.60;;
58615;SDS011;44385;51.992;4.206;2023-07-22T13:51:51;3.77;;;2.10;;
58615;SDS011;44385;51.992;4.206;2023-07-22T13:54:19;8.32;;;1.90;;
58615;SDS011;44385;51.992;4.206;2023-07-22T13:56:46;4.35;;;2.10;;
58615;SDS011;44385;51.992;4.206;2023-07-22T13:59:15;5.95;;;2.08;;
58615;SDS011;44385;51.992;4.206;2023-07-22T14:01:42;8.15;;;2.20;;
58615;SDS011;44385;51.992;4.206;2023-07-22T14:04:09;6.72;;;2.10;;
58615;SDS011;44385;51.992;4.206;2023-07-22T14:06:38;5.40;;;2.10;;
58615;SDS011;44385;51.992;4.206;2023-07-22T14:09:08;7.40;;;2.38;;
58615;SDS011;44385;51.992;4.206;2023-07-22T14:11:40;4.72;;;1.88;;
58615;SDS011;44385;51.992;4.206;2023-07-22T14:14:09;4.38;;;2.00;;
58615;SDS011;44385;51.992;4.206;2023-07-22T14:16:53;4.68;;;1.80;;
58615;SDS011;44385;51.992;4.206;2023-07-22T14:19:20;3.58;;;1.48;;
58615;SDS011;44385;51.992;4.206;2023-07-22T14:21:48;7.65;;;2.25;;
58615;SDS011;44385;51.992;4.206;2023-07-22T14:24:14;4.75;;;1.90;;
58615;SDS011;44385;51.992;4.206;2023-07-22T14:26:46;5.18;;;1.85;;
58615;SDS011;44385;51.992;4.206;2023-07-22T14:29:14;8.50;;;2.10;;
58615;SDS011;44385;51.992;4.206;2023-07-22T14:31:42;5.53;;;2.15;;
58615;SDS011;44385;51.992;4.206;2023-07-22T14:34:10;8.32;;;2.45;;
58615;SDS011;44385;51.992;4.206;2023-07-22T14:36:39;5.95;;;2.22;;
58615;SDS011;44385;51.992;4.206;2023-07-22T14:39:07;3.85;;;1.98;;
58615;SDS011;44385;51.992;4.206;2023-07-22T14:41:34;7.47;;;1.95;;
58615;SDS011;44385;51.992;4.206;2023-07-22T14:44:02;7.50;;;2.92;;
58615;SDS011;44385;51.992;4.206;2023-07-22T14:46:31;6.28;;;2.78;;
58615;SDS011;44385;51.992;4.206;2023-07-22T14:49:05;6.32;;;2.13;;
58615;SDS011;44385;51.992;4.206;2023-07-22T14:51:34;3.25;;;1.95;;
58615;SDS011;44385;51.992;4.206;2023-07-22T14:54:01;4.40;;;2.63;;
58615;SDS011;44385;51.992;4.206;2023-07-22T14:56:27;5.65;;;1.85;;
58615;SDS011;44385;51.992;4.206;2023-07-22T14:58:56;5.20;;;2.40;;
58615;SDS011;44385;51.992;4.206;2023-07-22T15:01:24;5.10;;;1.70;;
58615;SDS011;44385;51.992;4.206;2023-07-22T15:03:50;9.70;;;2.42;;
58615;SDS011;44385;51.992;4.206;2023-07-22T15:06:17;7.75;;;2.38;;
58615;SDS011;44385;51.992;4.206;2023-07-22T15:08:44;5.53;;;2.30;;
58615;SDS011;44385;51.992;4.206;2023-07-22T15:11:10;5.60;;;1.92;;
58615;SDS011;44385;51.992;4.206;2023-07-22T15:13:39;5.63;;;2.20;;
58615;SDS011;44385;51.992;4.206;2023-07-22T15:16:05;9.45;;;2.25;;
58615;SDS011;44385;51.992;4.206;2023-07-22T15:18:35;6.50;;;2.28;;
58615;SDS011;44385;51.992;4.206;2023-07-22T15:21:02;4.90;;;2.08;;
58615;SDS011;44385;51.992;4.206;2023-07-22T15:23:28;4.95;;;2.10;;
58615;SDS011;44385;51.992;4.206;2023-07-22T15:25:57;7.75;;;2.75;;
58615;SDS011;44385;51.992;4.206;2023-07-22T15:28:24;5.85;;;1.77;;
58615;SDS011;44385;51.992;4.206;2023-07-22T15:30:51;3.92;;;2.22;;
58615;SDS011;44385;51.992;4.206;2023-07-22T15:33:18;5.30;;;2.10;;
58615;SDS011;44385;51.992;4.206;2023-07-22T15:35:48;4.82;;;2.20;;
58615;SDS011;44385;51.992;4.206;2023-07-22T15:38:14;6.03;;;2.17;;
58615;SDS011;44385;51.992;4.206;2023-07-22T15:40:41;5.57;;;2.47;;
58615;SDS011;44385;51.992;4.206;2023-07-22T15:43:07;3.03;;;1.60;;
58615;SDS011;44385;51.992;4.206;2023-07-22T15:45:33;6.63;;;2.10;;